sensor_id;sensor_type;location;lat;lon;timestamp;temperature;humidity
41058;DHT22;66768;48.884;2.258;2023-11-19T00:01:06;14.20;99.90
41058;DHT22;66768;48.884;2.258;2023-11-19T00:03:34;14.30;99.90
41058;DHT22;66768;48.884;2.258;2023-11-19T00:06:01;14.30;99.90
41058;DHT22;66768;48.884;2.258;2023-11-19T00:08:28;14.30;99.90
41058;DHT22;66768;48.884;2.258;2023-11-19T00:10:55;14.30;99.90
41058;DHT22;66768;48.884;2.258;2023-11-19T00:13:21;14.30;99.90
41058;DHT22;66768;48.884;2.258;2023-11-19T00:15:49;14.30;99.90
41058;DHT22;66768;48.884;2.258;2023-11-19T00:18:15;14.30;99.90
41058;DHT22;66768;48.884;2.258;2023-11-19T00:20:44;14.30;99.90
41058;DHT22;66768;48.884;2.258;2023-11-19T00:23:11;14.30;99.90
41058;DHT22;66768;48.884;2.258;2023-11-19T00:25:38;14.30;99.90
41058;DHT22;66768;48.884;2.258;2023-11-19T00:28:05;14.30;99.90
41058;DHT22;66768;48.884;2.258;2023-11-19T00:30:32;14.30;99.90
41058;DHT22;66768;48.884;2.258;2023-11-19T00:32:59;14.40;99.90
41058;DHT22;66768;48.884;2.258;2023-11-19T00:35:26;14.40;99.90
41058;DHT22;66768;48.884;2.258;2023-11-19T00:37:54;14.40;99.90
41058;DHT22;66768;48.884;2.258;2023-11-19T00:40:21;14.30;99.90
41058;DHT22;66768;48.884;2.258;2023-11-19T00:42:48;14.40;99.90
41058;DHT22;66768;48.884;2.258;2023-11-19T00:45:15;14.40;99.90
41058;DHT22;66768;48.884;2.258;2023-11-19T00:47:42;14.40;99.90
41058;DHT22;66768;48.884;2.258;2023-11-19T00:50:10;14.40;99.90
41058;DHT22;66768;48.884;2.258;2023-11-19T00:52:38;14.40;99.90
41058;DHT22;66768;48.884;2.258;2023-11-19T00:55:07;14.40;99.90
41058;DHT22;66768;48.884;2.258;2023-11-19T00:57:33;14.40;99.90
41058;DHT22;66768;48.884;2.258;2023-11-19T01:00:01;14.40;99.90
41058;DHT22;66768;48.884;2.258;2023-11-19T01:02:32;14.40;99.90
41058;DHT22;66768;48.884;2.258;2023-11-19T01:05:00;14.40;99.90
41058;DHT22;66768;48.884;2.258;2023-11-19T01:07:26;14.50;99.90
41058;DHT22;66768;48.884;2.258;2023-11-19T01:09:53;14.40;99.90
41058;DHT22;66768;48.884;2.258;2023-11-19T01:12:21;14.50;99.90
41058;DHT22;66768;48.884;2.258;2023-11-19T01:14:48;14.40;99.90
41058;DHT22;66768;48.884;2.258;2023-11-19T01:17:15;14.50;99.90
41058;DHT22;66768;48.884;2.258;2023-11-19T01:19:42;14.50;99.90
41058;DHT22;66768;48.884;2.258;2023-11-19T01:22:08;14.50;99.90
41058;DHT22;66768;48.884;2.258;2023-11-19T01:24:35;14.50;99.90
41058;DHT22;66768;48.884;2.258;2023-11-19T01:27:02;14.50;99.90
41058;DHT22;66768;48.884;2.258;2023-11-19T01:29:30;14.50;99.90
41058;DHT22;66768;48.884;2.258;2023-11-19T01:31:57;14.50;99.90
41058;DHT22;66768;48.884;2.258;2023-11-19T01:34:23;14.50;99.90
41058;DHT22;66768;48.884;2.258;2023-11-19T01:36:50;14.50;99.90
41058;DHT22;66768;48.884;2.258;2023-11-19T01:39:17;14.50;99.90
41058;DHT22;66768;48.884;2.258;2023-11-19T01:41:45;14.50;99.90
41058;DHT22;66768;48.884;2.258;2023-11-19T01:44:12;14.50;99.90
41058;DHT22;66768;48.884;2.258;2023-11-19T01:46:42;14.50;99.90
41058;DHT22;66768;48.884;2.258;2023-11-19T01:49:10;14.50;99.90
41058;DHT22;66768;48.884;2.258;2023-11-19T01:51:38;14.50;99.90
41058;DHT22;66768;48.884;2.258;2023-11-19T01:54:06;14.50;99.90
41058;DHT22;66768;48.884;2.258;2023-11-19T01:56:34;14.50;99.90
41058;DHT22;66768;48.884;2.258;2023-11-19T01:59:02;14.50;99.90
41058;DHT22;66768;48.884;2.258;2023-11-19T02:01:29;14.60;99.90
41058;DHT22;66768;48.884;2.258;2023-11-19T02:03:59;14.50;99.90
41058;DHT22;66768;48.884;2.258;2023-11-19T02:06:26;14.50;99.90
41058;DHT22;66768;48.884;2.258;2023-11-19T02:08:54;14.50;99.90
41058;DHT22;66768;48.884;2.258;2023-11-19T02:11:21;14.50;99.90
41058;DHT22;66768;48.884;2.258;2023-11-19T02:13:48;14.50;99.90
41058;DHT22;66768;48.884;2.258;2023-11-19T02:16:15;14.50;99.90
41058;DHT22;66768;48.884;2.258;2023-11-19T02:18:42;14.50;99.90
41058;DHT22;66768;48.884;2.258;2023-11-19T02:21:10;14.60;99.90
41058;DHT22;66768;48.884;2.258;2023-11-19T02:23:37;14.50;99.90
41058;DHT22;66768;48.884;2.258;2023-11-19T02:26:12;14.50;99.90
41058;DHT22;66768;48.884;2.258;2023-11-19T02:28:41;14.50;99.90
41058;DHT22;66768;48.884;2.258;2023-11-19T02:31:09;14.50;99.90
41058;DHT22;66768;48.884;2.258;2023-11-19T02:33:36;14.50;99.90
41058;DHT22;66768;48.884;2.258;2023-11-19T02:36:03;14.50;99.90
41058;DHT22;66768;48.884;2.258;2023-11-19T02:38:31;14.50;99.90
41058;DHT22;66768;48.884;2.258;2023-11-19T02:40:57;14.40;99.90
41058;DHT22;66768;48.884;2.258;2023-11-19T02:43:25;14.40;99.90
41058;DHT22;66768;48.884;2.258;2023-11-19T02:45:53;14.40;99.90
41058;DHT22;66768;48.884;2.258;2023-11-19T02:48:21;14.50;99.90
41058;DHT22;66768;48.884;2.258;2023-11-19T02:50:48;14.50;99.90
41058;DHT22;66768;48.884;2.258;2023-11-19T02:53:14;14.40;99.90
41058;DHT22;66768;48.884;2.258;2023-11-19T02:55:43;14.50;99.90
41058;DHT22;66768;48.884;2.258;2023-11-19T02:58:14;14.40;99.90
41058;DHT22;66768;48.884;2.258;2023-11-19T03:00:49;14.40;99.90
41058;DHT22;66768;48.884;2.258;2023-11-19T03:03:23;14.40;99.90
41058;DHT22;66768;48.884;2.258;2023-11-19T03:05:54;14.40;99.90
41058;DHT22;66768;48.884;2.258;2023-11-19T03:08:21;14.40;99.90
41058;DHT22;66768;48.884;2.258;2023-11-19T03:10:48;14.40;99.90
41058;DHT22;66768;48.884;2.258;2023-11-19T03:13:16;14.40;99.90
41058;DHT22;66768;48.884;2.258;2023-11-19T03:15:43;14.40;99.90
41058;DHT22;66768;48.884;2.258;2023-11-19T03:18:10;14.40;99.90
41058;DHT22;66768;48.884;2.258;2023-11-19T03:20:38;14.30;99.90
41058;DHT22;66768;48.884;2.258;2023-11-19T03:23:05;14.40;99.90
41058;DHT22;66768;48.884;2.258;2023-11-19T03:25:32;14.40;99.90
41058;DHT22;66768;48.884;2.258;2023-11-19T03:28:00;14.30;99.90
41058;DHT22;66768;48.884;2.258;2023-11-19T03:30:27;14.30;99.90
41058;DHT22;66768;48.884;2.258;2023-11-19T03:32:55;14.30;99.90
41058;DHT22;66768;48.884;2.258;2023-11-19T03:35:22;14.30;99.90
41058;DHT22;66768;48.884;2.258;2023-11-19T03:37:51;14.30;99.90
41058;DHT22;66768;48.884;2.258;2023-11-19T03:40:18;14.30;99.90
41058;DHT22;66768;48.884;2.258;2023-11-19T03:42:45;14.30;99.90
41058;DHT22;66768;48.884;2.258;2023-11-19T03:45:12;14.30;99.90
41058;DHT22;66768;48.884;2.258;2023-11-19T03:47:40;14.30;99.90
41058;DHT22;66768;48.884;2.258;2023-11-19T03:50:07;14.30;99.90
41058;DHT22;66768;48.884;2.258;2023-11-19T03:52:34;14.30;99.90
41058;DHT22;66768;48.884;2.258;2023-11-19T03:55:03;14.30;99.90
41058;DHT22;66768;48.884;2.258;2023-11-19T03:57:31;14.30;99.90
41058;DHT22;66768;48.884;2.258;2023-11-19T03:59:58;14.30;99.90
41058;DHT22;66768;48.884;2.258;2023-11-19T04:02:25;14.30;99.90
41058;DHT22;66768;48.884;2.258;2023-11-19T04:04:53;14.30;99.90
41058;DHT22;66768;48.884;2.258;2023-11-19T04:07:20;14.30;99.90
41058;DHT22;66768;48.884;2.258;2023-11-19T04:09:47;14.30;99.90
41058;DHT22;66768;48.884;2.258;2023-11-19T04:12:15;14.30;99.90
41058;DHT22;66768;48.884;2.258;2023-11-19T04:14:42;14.20;99.90
41058;DHT22;66768;48.884;2.258;2023-11-19T04:17:09;14.30;99.90
41058;DHT22;66768;48.884;2.258;2023-11-19T04:19:36;14.30;99.90
41058;DHT22;66768;48.884;2.258;2023-11-19T04:22:03;14.30;99.90
41058;DHT22;66768;48.884;2.258;2023-11-19T04:24:30;14.20;99.90
41058;DHT22;66768;48.884;2.258;2023-11-19T04:26:57;14.30;99.90
41058;DHT22;66768;48.884;2.258;2023-11-19T04:29:25;14.30;99.90
41058;DHT22;66768;48.884;2.258;2023-11-19T04:31:52;14.20;99.90
41058;DHT22;66768;48.884;2.258;2023-11-19T04:34:18;14.30;99.90
41058;DHT22;66768;48.884;2.258;2023-11-19T04:36:45;14.30;99.90
41058;DHT22;66768;48.884;2.258;2023-11-19T04:39:12;14.30;99.90
41058;DHT22;66768;48.884;2.258;2023-11-19T04:41:46;14.20;99.90
41058;DHT22;66768;48.884;2.258;2023-11-19T04:44:13;14.30;99.90
41058;DHT22;66768;48.884;2.258;2023-11-19T04:46:42;14.20;99.90
41058;DHT22;66768;48.884;2.258;2023-11-19T04:49:09;14.20;99.90
41058;DHT22;66768;48.884;2.258;2023-11-19T04:51:38;14.20;99.90
41058;DHT22;66768;48.884;2.258;2023-11-19T04:54:06;14.20;99.90
41058;DHT22;66768;48.884;2.258;2023-11-19T04:56:34;14.20;99.90
41058;DHT22;66768;48.884;2.258;2023-11-19T04:59:00;14.20;99.90
41058;DHT22;66768;48.884;2.258;2023-11-19T05:01:27;14.20;99.90
41058;DHT22;66768;48.884;2.258;2023-11-19T05:03:56;14.20;99.90
41058;DHT22;66768;48.884;2.258;2023-11-19T05:06:26;14.20;99.90
41058;DHT22;66768;48.884;2.258;2023-11-19T05:08:53;14.20;99.90
41058;DHT22;66768;48.884;2.258;2023-11-19T05:11:20;14.20;99.90
41058;DHT22;66768;48.884;2.258;2023-11-19T05:13:47;14.20;99.90
41058;DHT22;66768;48.884;2.258;2023-11-19T05:16:14;14.20;99.90
41058;DHT22;66768;48.884;2.258;2023-11-19T05:18:41;14.20;99.90
41058;DHT22;66768;48.884;2.258;2023-11-19T05:21:09;14.30;99.90
41058;DHT22;66768;48.884;2.258;2023-11-19T05:23:36;14.20;99.90
41058;DHT22;66768;48.884;2.258;2023-11-19T05:26:03;14.20;99.90
41058;DHT22;66768;48.884;2.258;2023-11-19T05:28:30;14.10;99.90
41058;DHT22;66768;48.884;2.258;2023-11-19T05:30:57;14.10;99.90
41058;DHT22;66768;48.884;2.258;2023-11-19T05:33:23;14.10;99.90
41058;DHT22;66768;48.884;2.258;2023-11-19T05:35:50;14.10;99.90
41058;DHT22;66768;48.884;2.258;2023-11-19T05:38:18;14.10;99.90
41058;DHT22;66768;48.884;2.258;2023-11-19T05:40:46;14.10;99.90
41058;DHT22;66768;48.884;2.258;2023-11-19T05:43:14;14.10;99.90
41058;DHT22;66768;48.884;2.258;2023-11-19T05:45:42;14.10;99.90
41058;DHT22;66768;48.884;2.258;2023-11-19T05:48:09;14.20;99.90
41058;DHT22;66768;48.884;2.258;2023-11-19T05:50:36;14.10;99.90
41058;DHT22;66768;48.884;2.258;2023-11-19T05:53:03;14.10;99.90
41058;DHT22;66768;48.884;2.258;2023-11-19T05:55:33;14.10;99.90
41058;DHT22;66768;48.884;2.258;2023-11-19T05:58:01;14.10;99.90
41058;DHT22;66768;48.884;2.258;2023-11-19T06:00:28;14.10;99.90
41058;DHT22;66768;48.884;2.258;2023-11-19T06:02:56;14.10;99.90
41058;DHT22;66768;48.884;2.258;2023-11-19T06:05:23;14.10;99.90
41058;DHT22;66768;48.884;2.258;2023-11-19T06:07:49;14.00;99.90
41058;DHT22;66768;48.884;2.258;2023-11-19T06:10:17;14.10;99.90
41058;DHT22;66768;48.884;2.258;2023-11-19T06:12:46;14.00;99.90
41058;DHT22;66768;48.884;2.258;2023-11-19T06:15:13;14.10;99.90
41058;DHT22;66768;48.884;2.258;2023-11-19T06:17:40;14.00;99.90
41058;DHT22;66768;48.884;2.258;2023-11-19T06:20:07;14.00;99.90
41058;DHT22;66768;48.884;2.258;2023-11-19T06:22:37;14.10;99.90
41058;DHT22;66768;48.884;2.258;2023-11-19T06:25:04;14.00;99.90
41058;DHT22;66768;48.884;2.258;2023-11-19T06:27:32;14.00;99.90
41058;DHT22;66768;48.884;2.258;2023-11-19T06:30:01;14.00;99.90
41058;DHT22;66768;48.884;2.258;2023-11-19T06:32:28;14.00;99.90
41058;DHT22;66768;48.884;2.258;2023-11-19T06:34:55;14.00;99.90
41058;DHT22;66768;48.884;2.258;2023-11-19T06:37:22;14.00;99.90
41058;DHT22;66768;48.884;2.258;2023-11-19T06:39:49;14.00;99.90
41058;DHT22;66768;48.884;2.258;2023-11-19T06:42:16;13.90;99.90
41058;DHT22;66768;48.884;2.258;2023-11-19T06:44:42;13.90;99.90
41058;DHT22;66768;48.884;2.258;2023-11-19T06:47:10;13.90;99.90
41058;DHT22;66768;48.884;2.258;2023-11-19T06:49:37;13.90;99.90
41058;DHT22;66768;48.884;2.258;2023-11-19T06:52:04;13.90;99.90
41058;DHT22;66768;48.884;2.258;2023-11-19T06:54:31;13.90;99.90
41058;DHT22;66768;48.884;2.258;2023-11-19T06:56:58;13.90;99.90
41058;DHT22;66768;48.884;2.258;2023-11-19T06:59:25;13.90;99.90
41058;DHT22;66768;48.884;2.258;2023-11-19T07:01:52;13.90;99.90
41058;DHT22;66768;48.884;2.258;2023-11-19T07:04:20;13.90;99.90
41058;DHT22;66768;48.884;2.258;2023-11-19T07:06:47;13.80;99.90
41058;DHT22;66768;48.884;2.258;2023-11-19T07:09:14;13.80;99.90
41058;DHT22;66768;48.884;2.258;2023-11-19T07:11:42;13.80;99.90
41058;DHT22;66768;48.884;2.258;2023-11-19T07:14:09;13.90;99.90
41058;DHT22;66768;48.884;2.258;2023-11-19T07:16:37;13.80;99.90
41058;DHT22;66768;48.884;2.258;2023-11-19T07:19:05;13.80;99.90
41058;DHT22;66768;48.884;2.258;2023-11-19T07:21:33;13.70;99.90
41058;DHT22;66768;48.884;2.258;2023-11-19T07:23:59;13.80;99.90
41058;DHT22;66768;48.884;2.258;2023-11-19T07:26:26;13.70;99.90
41058;DHT22;66768;48.884;2.258;2023-11-19T07:28:53;13.80;99.90
41058;DHT22;66768;48.884;2.258;2023-11-19T07:31:21;13.80;99.90
41058;DHT22;66768;48.884;2.258;2023-11-19T07:33:49;13.80;99.90
41058;DHT22;66768;48.884;2.258;2023-11-19T07:36:16;13.70;99.90
41058;DHT22;66768;48.884;2.258;2023-11-19T07:38:45;13.70;99.90
41058;DHT22;66768;48.884;2.258;2023-11-19T07:41:13;13.70;99.90
41058;DHT22;66768;48.884;2.258;2023-11-19T07:43:41;13.70;99.90
41058;DHT22;66768;48.884;2.258;2023-11-19T07:46:11;13.80;99.90
41058;DHT22;66768;48.884;2.258;2023-11-19T07:48:38;13.80;99.90
41058;DHT22;66768;48.884;2.258;2023-11-19T07:51:05;13.80;99.90
41058;DHT22;66768;48.884;2.258;2023-11-19T07:53:32;13.80;99.90
41058;DHT22;66768;48.884;2.258;2023-11-19T07:56:01;13.80;99.90
41058;DHT22;66768;48.884;2.258;2023-11-19T07:58:27;13.80;99.90
41058;DHT22;66768;48.884;2.258;2023-11-19T08:00:54;13.80;99.90
41058;DHT22;66768;48.884;2.258;2023-11-19T08:03:21;13.80;99.90
41058;DHT22;66768;48.884;2.258;2023-11-19T08:05:49;13.80;99.90
41058;DHT22;66768;48.884;2.258;2023-11-19T08:08:16;13.80;99.90
41058;DHT22;66768;48.884;2.258;2023-11-19T08:10:43;13.80;99.90
41058;DHT22;66768;48.884;2.258;2023-11-19T08:13:11;13.90;99.90
41058;DHT22;66768;48.884;2.258;2023-11-19T08:15:38;13.80;99.90
41058;DHT22;66768;48.884;2.258;2023-11-19T08:18:05;13.90;99.90
41058;DHT22;66768;48.884;2.258;2023-11-19T08:20:32;13.80;99.90
41058;DHT22;66768;48.884;2.258;2023-11-19T08:22:59;13.90;99.90
41058;DHT22;66768;48.884;2.258;2023-11-19T08:25:26;13.80;99.90
41058;DHT22;66768;48.884;2.258;2023-11-19T08:27:54;13.90;99.90
41058;DHT22;66768;48.884;2.258;2023-11-19T08:30:23;13.90;99.90
41058;DHT22;66768;48.884;2.258;2023-11-19T08:32:49;13.80;99.90
41058;DHT22;66768;48.884;2.258;2023-11-19T08:35:16;13.90;99.90
41058;DHT22;66768;48.884;2.258;2023-11-19T08:37:43;13.90;99.90
41058;DHT22;66768;48.884;2.258;2023-11-19T08:40:12;13.90;99.90
41058;DHT22;66768;48.884;2.258;2023-11-19T08:42:40;13.90;99.90
41058;DHT22;66768;48.884;2.258;2023-11-19T08:45:08;13.90;99.90
41058;DHT22;66768;48.884;2.258;2023-11-19T08:47:37;13.90;99.90
41058;DHT22;66768;48.884;2.258;2023-11-19T08:50:06;13.90;99.90
41058;DHT22;66768;48.884;2.258;2023-11-19T08:52:33;13.90;99.90
41058;DHT22;66768;48.884;2.258;2023-11-19T08:55:01;13.90;99.90
41058;DHT22;66768;48.884;2.258;2023-11-19T08:57:28;13.90;99.90
41058;DHT22;66768;48.884;2.258;2023-11-19T08:59:55;13.90;99.90
41058;DHT22;66768;48.884;2.258;2023-11-19T09:02:21;14.00;99.90
41058;DHT22;66768;48.884;2.258;2023-11-19T09:04:50;13.90;99.90
41058;DHT22;66768;48.884;2.258;2023-11-19T09:07:17;13.90;99.90
41058;DHT22;66768;48.884;2.258;2023-11-19T09:09:43;13.90;99.90
41058;DHT22;66768;48.884;2.258;2023-11-19T09:12:11;13.90;99.90
41058;DHT22;66768;48.884;2.258;2023-11-19T09:14:39;13.90;99.90
41058;DHT22;66768;48.884;2.258;2023-11-19T09:17:07;13.90;99.90
41058;DHT22;66768;48.884;2.258;2023-11-19T09:19:35;14.00;99.90
41058;DHT22;66768;48.884;2.258;2023-11-19T09:22:03;13.90;99.90
41058;DHT22;66768;48.884;2.258;2023-11-19T09:24:30;14.00;99.90
41058;DHT22;66768;48.884;2.258;2023-11-19T09:26:57;14.00;99.90
41058;DHT22;66768;48.884;2.258;2023-11-19T09:29:23;13.90;99.90
41058;DHT22;66768;48.884;2.258;2023-11-19T09:31:50;14.00;99.90
41058;DHT22;66768;48.884;2.258;2023-11-19T09:34:17;14.00;99.90
41058;DHT22;66768;48.884;2.258;2023-11-19T09:36:44;14.00;99.90
41058;DHT22;66768;48.884;2.258;2023-11-19T09:39:12;14.00;99.90
41058;DHT22;66768;48.884;2.258;2023-11-19T09:41:40;14.10;99.90
41058;DHT22;66768;48.884;2.258;2023-11-19T09:44:08;14.00;99.90
41058;DHT22;66768;48.884;2.258;2023-11-19T09:46:35;14.00;99.90
41058;DHT22;66768;48.884;2.258;2023-11-19T09:49:02;14.00;99.90
41058;DHT22;66768;48.884;2.258;2023-11-19T09:51:30;14.10;99.90
41058;DHT22;66768;48.884;2.258;2023-11-19T09:53:57;14.10;99.90
41058;DHT22;66768;48.884;2.258;2023-11-19T09:56:26;14.10;99.90
41058;DHT22;66768;48.884;2.258;2023-11-19T09:58:55;14.10;99.90
41058;DHT22;66768;48.884;2.258;2023-11-19T10:01:22;14.20;99.90
41058;DHT22;66768;48.884;2.258;2023-11-19T10:03:50;14.20;99.90
41058;DHT22;66768;48.884;2.258;2023-11-19T10:06:19;14.20;99.90
41058;DHT22;66768;48.884;2.258;2023-11-19T10:08:46;14.20;99.90
41058;DHT22;66768;48.884;2.258;2023-11-19T10:11:13;14.20;99.90
41058;DHT22;66768;48.884;2.258;2023-11-19T10:13:42;14.20;99.90
41058;DHT22;66768;48.884;2.258;2023-11-19T10:16:11;14.20;99.90
41058;DHT22;66768;48.884;2.258;2023-11-19T10:18:43;14.20;99.90
41058;DHT22;66768;48.884;2.258;2023-11-19T10:21:12;14.30;99.90
41058;DHT22;66768;48.884;2.258;2023-11-19T10:23:49;14.30;99.90
41058;DHT22;66768;48.884;2.258;2023-11-19T10:26:17;14.30;99.90
41058;DHT22;66768;48.884;2.258;2023-11-19T10:28:46;14.30;99.90
41058;DHT22;66768;48.884;2.258;2023-11-19T10:31:13;14.30;99.90
41058;DHT22;66768;48.884;2.258;2023-11-19T10:33:39;14.30;99.90
41058;DHT22;66768;48.884;2.258;2023-11-19T10:36:07;14.40;99.90
41058;DHT22;66768;48.884;2.258;2023-11-19T10:38:34;14.40;99.90
41058;DHT22;66768;48.884;2.258;2023-11-19T10:41:00;14.50;99.90
41058;DHT22;66768;48.884;2.258;2023-11-19T10:43:27;14.50;99.90
41058;DHT22;66768;48.884;2.258;2023-11-19T10:46:09;14.50;99.90
41058;DHT22;66768;48.884;2.258;2023-11-19T10:48:36;14.50;99.90
41058;DHT22;66768;48.884;2.258;2023-11-19T10:51:05;14.50;99.90
41058;DHT22;66768;48.884;2.258;2023-11-19T10:53:36;14.50;99.90
41058;DHT22;66768;48.884;2.258;2023-11-19T10:56:06;14.50;99.90
41058;DHT22;66768;48.884;2.258;2023-11-19T10:58:35;14.50;99.90
41058;DHT22;66768;48.884;2.258;2023-11-19T11:01:09;14.50;99.90
41058;DHT22;66768;48.884;2.258;2023-11-19T11:03:39;14.50;99.90
41058;DHT22;66768;48.884;2.258;2023-11-19T11:06:07;14.60;99.90
41058;DHT22;66768;48.884;2.258;2023-11-19T11:08:36;14.60;99.90
41058;DHT22;66768;48.884;2.258;2023-11-19T11:11:05;14.60;99.90
41058;DHT22;66768;48.884;2.258;2023-11-19T11:13:33;14.60;99.90
41058;DHT22;66768;48.884;2.258;2023-11-19T11:16:00;14.60;99.90
41058;DHT22;66768;48.884;2.258;2023-11-19T11:18:31;14.70;99.90
41058;DHT22;66768;48.884;2.258;2023-11-19T11:21:01;14.60;99.90
41058;DHT22;66768;48.884;2.258;2023-11-19T11:27:00;14.60;99.90
41058;DHT22;66768;48.884;2.258;2023-11-19T11:29:37;14.60;99.90
41058;DHT22;66768;48.884;2.258;2023-11-19T11:32:15;14.60;99.90
41058;DHT22;66768;48.884;2.258;2023-11-19T11:35:01;14.60;99.90
41058;DHT22;66768;48.884;2.258;2023-11-19T11:37:39;14.70;99.90
41058;DHT22;66768;48.884;2.258;2023-11-19T11:40:14;14.70;99.90
41058;DHT22;66768;48.884;2.258;2023-11-19T11:42:41;14.70;99.90
41058;DHT22;66768;48.884;2.258;2023-11-19T11:45:09;14.70;99.90
41058;DHT22;66768;48.884;2.258;2023-11-19T11:48:05;14.70;99.90
41058;DHT22;66768;48.884;2.258;2023-11-19T11:50:36;14.70;99.90
41058;DHT22;66768;48.884;2.258;2023-11-19T11:53:14;14.80;99.90
41058;DHT22;66768;48.884;2.258;2023-11-19T11:55:56;14.80;99.90
41058;DHT22;66768;48.884;2.258;2023-11-19T11:58:36;14.80;99.90
41058;DHT22;66768;48.884;2.258;2023-11-19T12:01:07;14.90;99.90
41058;DHT22;66768;48.884;2.258;2023-11-19T12:03:34;14.90;99.90
41058;DHT22;66768;48.884;2.258;2023-11-19T12:06:03;14.90;99.90
41058;DHT22;66768;48.884;2.258;2023-11-19T12:08:30;15.00;99.90
41058;DHT22;66768;48.884;2.258;2023-11-19T12:10:58;15.00;99.90
41058;DHT22;66768;48.884;2.258;2023-11-19T12:13:42;15.00;99.90
41058;DHT22;66768;48.884;2.258;2023-11-19T12:16:10;15.10;99.90
41058;DHT22;66768;48.884;2.258;2023-11-19T12:18:39;15.00;99.90
41058;DHT22;66768;48.884;2.258;2023-11-19T12:21:09;15.00;99.90
41058;DHT22;66768;48.884;2.258;2023-11-19T12:23:45;15.00;99.90
41058;DHT22;66768;48.884;2.258;2023-11-19T12:26:38;15.00;99.90
41058;DHT22;66768;48.884;2.258;2023-11-19T12:29:06;15.10;99.90
41058;DHT22;66768;48.884;2.258;2023-11-19T12:31:33;15.00;99.90
41058;DHT22;66768;48.884;2.258;2023-11-19T12:34:09;15.00;99.90
41058;DHT22;66768;48.884;2.258;2023-11-19T12:36:39;15.00;99.90
41058;DHT22;66768;48.884;2.258;2023-11-19T12:39:06;15.10;99.90
41058;DHT22;66768;48.884;2.258;2023-11-19T12:41:52;15.00;99.90
41058;DHT22;66768;48.884;2.258;2023-11-19T12:44:19;15.10;99.90
41058;DHT22;66768;48.884;2.258;2023-11-19T12:46:46;15.10;99.90
41058;DHT22;66768;48.884;2.258;2023-11-19T12:49:13;15.10;99.90
41058;DHT22;66768;48.884;2.258;2023-11-19T12:51:41;15.00;99.90
41058;DHT22;66768;48.884;2.258;2023-11-19T12:54:08;15.00;99.90
41058;DHT22;66768;48.884;2.258;2023-11-19T12:56:35;15.10;99.90
41058;DHT22;66768;48.884;2.258;2023-11-19T12:59:10;15.10;99.90
41058;DHT22;66768;48.884;2.258;2023-11-19T13:01:38;15.10;99.90
41058;DHT22;66768;48.884;2.258;2023-11-19T13:04:16;15.10;99.90
41058;DHT22;66768;48.884;2.258;2023-11-19T13:06:46;15.10;99.90
41058;DHT22;66768;48.884;2.258;2023-11-19T13:09:21;15.10;99.90
41058;DHT22;66768;48.884;2.258;2023-11-19T13:11:48;15.10;99.90
41058;DHT22;66768;48.884;2.258;2023-11-19T13:14:15;15.20;99.90
41058;DHT22;66768;48.884;2.258;2023-11-19T13:16:42;15.20;99.90
41058;DHT22;66768;48.884;2.258;2023-11-19T13:19:11;15.30;99.90
41058;DHT22;66768;48.884;2.258;2023-11-19T13:21:37;15.30;99.90
41058;DHT22;66768;48.884;2.258;2023-11-19T13:24:06;15.40;99.90
41058;DHT22;66768;48.884;2.258;2023-11-19T13:26:33;15.40;99.90
41058;DHT22;66768;48.884;2.258;2023-11-19T13:29:01;15.40;99.90
41058;DHT22;66768;48.884;2.258;2023-11-19T13:31:27;15.40;99.90
41058;DHT22;66768;48.884;2.258;2023-11-19T13:33:54;15.40;99.90
41058;DHT22;66768;48.884;2.258;2023-11-19T13:36:22;15.40;99.90
41058;DHT22;66768;48.884;2.258;2023-11-19T13:38:48;15.30;99.90
41058;DHT22;66768;48.884;2.258;2023-11-19T13:41:17;15.30;99.90
41058;DHT22;66768;48.884;2.258;2023-11-19T13:43:44;15.20;99.90
41058;DHT22;66768;48.884;2.258;2023-11-19T13:46:11;15.20;99.90
41058;DHT22;66768;48.884;2.258;2023-11-19T13:48:37;15.20;99.90
41058;DHT22;66768;48.884;2.258;2023-11-19T13:51:05;15.10;99.90
41058;DHT22;66768;48.884;2.258;2023-11-19T13:53:32;15.10;99.90
41058;DHT22;66768;48.884;2.258;2023-11-19T13:55:58;15.10;99.90
41058;DHT22;66768;48.884;2.258;2023-11-19T13:58:26;15.10;99.90
41058;DHT22;66768;48.884;2.258;2023-11-19T14:00:53;15.10;99.90
41058;DHT22;66768;48.884;2.258;2023-11-19T14:03:20;15.00;99.90
41058;DHT22;66768;48.884;2.258;2023-11-19T14:05:47;15.00;99.90
41058;DHT22;66768;48.884;2.258;2023-11-19T14:08:17;15.00;99.90
41058;DHT22;66768;48.884;2.258;2023-11-19T14:10:44;15.00;99.90
41058;DHT22;66768;48.884;2.258;2023-11-19T14:13:11;15.00;99.90
41058;DHT22;66768;48.884;2.258;2023-11-19T14:15:42;15.00;99.90
41058;DHT22;66768;48.884;2.258;2023-11-19T14:18:08;15.00;99.90
41058;DHT22;66768;48.884;2.258;2023-11-19T14:20:35;14.90;99.90
41058;DHT22;66768;48.884;2.258;2023-11-19T14:23:03;15.00;99.90
41058;DHT22;66768;48.884;2.258;2023-11-19T14:25:30;14.90;99.90
41058;DHT22;66768;48.884;2.258;2023-11-19T14:27:56;14.90;99.90
41058;DHT22;66768;48.884;2.258;2023-11-19T14:30:23;14.90;99.90
41058;DHT22;66768;48.884;2.258;2023-11-19T14:32:51;14.90;99.90
41058;DHT22;66768;48.884;2.258;2023-11-19T14:35:19;14.90;99.90
41058;DHT22;66768;48.884;2.258;2023-11-19T14:37:46;14.90;99.90
41058;DHT22;66768;48.884;2.258;2023-11-19T14:40:13;14.90;99.90
41058;DHT22;66768;48.884;2.258;2023-11-19T14:42:40;14.90;99.90
41058;DHT22;66768;48.884;2.258;2023-11-19T14:45:07;14.90;99.90
41058;DHT22;66768;48.884;2.258;2023-11-19T14:47:37;14.90;99.90
41058;DHT22;66768;48.884;2.258;2023-11-19T14:50:06;14.90;99.90
41058;DHT22;66768;48.884;2.258;2023-11-19T14:52:34;14.90;99.90
41058;DHT22;66768;48.884;2.258;2023-11-19T14:55:01;15.00;99.90
41058;DHT22;66768;48.884;2.258;2023-11-19T14:57:28;15.00;99.90
41058;DHT22;66768;48.884;2.258;2023-11-19T14:59:55;15.00;99.90
41058;DHT22;66768;48.884;2.258;2023-11-19T15:02:21;15.10;99.90
41058;DHT22;66768;48.884;2.258;2023-11-19T15:04:48;15.00;99.90
41058;DHT22;66768;48.884;2.258;2023-11-19T15:07:16;15.00;99.90
41058;DHT22;66768;48.884;2.258;2023-11-19T15:09:43;15.00;99.90
41058;DHT22;66768;48.884;2.258;2023-11-19T15:12:11;15.00;99.90
41058;DHT22;66768;48.884;2.258;2023-11-19T15:14:37;15.00;99.90
41058;DHT22;66768;48.884;2.258;2023-11-19T15:17:04;15.00;99.90
41058;DHT22;66768;48.884;2.258;2023-11-19T15:19:32;15.00;99.90
41058;DHT22;66768;48.884;2.258;2023-11-19T15:21:59;15.00;99.90
41058;DHT22;66768;48.884;2.258;2023-11-19T15:24:29;15.00;99.90
41058;DHT22;66768;48.884;2.258;2023-11-19T15:26:56;14.90;99.90
41058;DHT22;66768;48.884;2.258;2023-11-19T15:29:23;14.90;99.90
41058;DHT22;66768;48.884;2.258;2023-11-19T15:31:49;14.90;99.90
41058;DHT22;66768;48.884;2.258;2023-11-19T15:34:16;14.90;99.90
41058;DHT22;66768;48.884;2.258;2023-11-19T15:36:44;14.90;99.90
41058;DHT22;66768;48.884;2.258;2023-11-19T15:39:12;14.90;99.90